createdAt,value
2016-04-14T05:08:48.169Z,522
2016-04-14T05:09:06.281Z,223
2016-04-14T05:09:24.562Z,282
2016-04-14T05:09:42.827Z,278
2016-04-14T05:10:01.113Z,274
2016-04-14T05:10:19.378Z,274
2016-04-14T05:10:37.660Z,270
2016-04-14T05:10:55.927Z,269
2016-04-14T05:11:14.037Z,269
2016-04-14T05:11:32.318Z,272
2016-04-14T05:11:50.568Z,272
2016-04-14T05:12:08.852Z,272
2016-04-14T05:12:27.118Z,271
2016-04-14T05:12:45.383Z,271
2016-04-14T05:13:03.666Z,269
2016-04-14T05:13:21.932Z,266
2016-04-14T05:13:40.338Z,266
2016-04-14T05:13:58.666Z,270
2016-04-14T05:14:16.932Z,271
2016-04-14T05:14:35.213Z,268
2016-04-14T05:14:53.526Z,267
2016-04-14T05:15:11.807Z,269
2016-04-14T05:15:30.088Z,270
2016-04-14T05:15:48.354Z,274
2016-04-14T05:16:06.666Z,274
2016-04-14T05:16:24.948Z,271
2016-04-14T05:16:43.213Z,271
2016-04-14T05:17:01.527Z,272
2016-04-14T05:17:19.808Z,267
2016-04-14T05:17:38.058Z,266
2016-04-14T05:17:56.361Z,265
2016-04-14T05:18:14.626Z,267
2016-04-14T05:18:32.908Z,263
2016-04-14T05:18:51.173Z,260
2016-04-14T05:19:09.474Z,263
2016-04-14T05:19:27.724Z,262
2016-04-14T05:19:46.006Z,264
2016-04-14T05:20:04.133Z,265
2016-04-14T05:20:22.414Z,267
2016-04-14T05:20:40.680Z,270
2016-04-14T05:20:58.980Z,276
2016-04-14T05:21:17.261Z,276
2016-04-14T05:21:35.527Z,277
2016-04-14T05:21:53.812Z,275
2016-04-14T05:22:12.077Z,273
2016-04-14T05:22:30.343Z,276
2016-04-14T05:22:48.609Z,277
2016-04-14T05:23:06.906Z,279
2016-04-14T05:23:25.187Z,278
2016-04-14T05:23:43.468Z,276
2016-04-14T05:24:01.758Z,273
2016-04-14T05:24:20.023Z,273
2016-04-14T05:24:38.289Z,277
2016-04-14T05:24:56.562Z,278
2016-04-14T05:25:14.844Z,277
2016-04-14T05:25:33.109Z,276
2016-04-14T05:25:51.219Z,277
2016-04-14T05:26:09.399Z,279
2016-04-14T05:26:27.617Z,279
2016-04-14T05:26:45.883Z,279
2016-04-14T05:27:04.158Z,278
2016-04-14T05:27:22.423Z,281
2016-04-14T05:27:40.689Z,278
2016-04-14T05:27:58.962Z,279
2016-04-14T05:28:17.228Z,281
2016-04-14T05:28:35.509Z,280
2016-04-14T05:28:53.764Z,283
2016-04-14T05:29:12.046Z,280
2016-04-14T05:29:30.311Z,280
2016-04-14T05:29:48.608Z,278
2016-04-14T05:30:06.878Z,279
2016-04-14T05:30:25.159Z,281
2016-04-14T05:30:43.440Z,280
2016-04-14T05:31:01.712Z,278
2016-04-14T05:31:19.993Z,276
2016-04-14T05:31:38.259Z,279
2016-04-14T05:31:56.545Z,276
2016-04-14T05:32:14.811Z,277
2016-04-14T05:32:33.076Z,277
2016-04-14T05:32:51.342Z,273
2016-04-14T05:33:09.611Z,270
2016-04-14T05:33:27.893Z,267
2016-04-14T05:33:46.158Z,269
2016-04-14T05:34:04.458Z,269
2016-04-14T05:34:22.739Z,268
2016-04-14T05:34:41.005Z,268
2016-04-14T05:34:59.275Z,269
2016-04-14T05:35:17.556Z,274
2016-04-14T05:35:35.822Z,271
2016-04-14T05:35:54.091Z,271
2016-04-14T05:36:12.372Z,269
2016-04-14T05:36:30.638Z,272
2016-04-14T05:36:48.919Z,273
2016-04-14T05:37:07.172Z,276
2016-04-14T05:37:25.454Z,274
2016-04-14T05:37:43.563Z,274
2016-04-14T05:38:01.832Z,274
2016-04-14T05:38:20.113Z,277
2016-04-14T05:38:38.378Z,277
2016-04-14T05:38:56.663Z,273
2016-04-14T05:39:14.928Z,271
2016-04-14T05:39:33.194Z,270
2016-04-14T05:39:51.475Z,270
2016-04-14T05:40:09.744Z,268
2016-04-14T05:40:28.009Z,271
2016-04-14T05:40:46.275Z,273
2016-04-14T05:41:04.558Z,272
2016-04-14T05:41:22.683Z,272
2016-04-14T05:41:40.965Z,272
2016-04-14T05:41:59.249Z,272
2016-04-14T05:42:17.514Z,268
2016-04-14T05:42:35.780Z,270
2016-04-14T05:42:54.063Z,269
2016-04-14T05:43:12.345Z,267
2016-04-14T05:43:30.610Z,272
2016-04-14T05:43:48.876Z,274
2016-04-14T05:44:07.160Z,273
2016-04-14T05:44:25.441Z,268
2016-04-14T05:44:43.691Z,268
2016-04-14T05:45:01.976Z,272
2016-04-14T05:45:20.257Z,272
2016-04-14T05:45:38.522Z,273
2016-04-14T05:45:56.807Z,270
2016-04-14T05:46:15.088Z,271
2016-04-14T05:46:33.369Z,272
2016-04-14T05:46:51.635Z,275
2016-04-14T05:47:09.919Z,274
2016-04-14T05:47:28.185Z,275
2016-04-14T05:47:46.310Z,274
2016-04-14T05:48:04.593Z,276
2016-04-14T05:48:22.874Z,275
2016-04-14T05:48:41.155Z,276
2016-04-14T05:48:59.424Z,278
2016-04-14T05:49:17.705Z,278
2016-04-14T05:49:35.987Z,277
2016-04-14T05:49:54.255Z,280
2016-04-14T05:50:12.536Z,280
2016-04-14T05:50:30.818Z,281
2016-04-14T05:50:49.083Z,282
2016-04-14T05:51:07.382Z,285
2016-04-14T05:51:25.648Z,290
2016-04-14T05:51:43.913Z,289
2016-04-14T05:52:02.198Z,289
2016-04-14T05:52:20.463Z,292
2016-04-14T05:52:38.745Z,295
2016-04-14T05:52:56.873Z,292
2016-04-14T05:53:15.138Z,293
2016-04-14T05:53:33.419Z,292
2016-04-14T05:53:51.685Z,295
2016-04-14T05:54:09.953Z,293
2016-04-14T05:54:28.234Z,293
2016-04-14T05:54:46.500Z,291
2016-04-14T05:55:04.784Z,291
2016-04-14T05:55:23.065Z,290
2016-04-14T05:55:41.331Z,292
2016-04-14T05:55:59.598Z,289
2016-04-14T05:56:17.723Z,291
2016-04-14T05:56:35.973Z,289
2016-04-14T05:56:54.258Z,288
2016-04-14T05:57:12.523Z,289
2016-04-14T05:57:30.804Z,289
2016-04-14T05:57:49.054Z,288
2016-04-14T05:58:07.339Z,287
2016-04-14T05:58:25.604Z,284
2016-04-14T05:58:43.886Z,289
2016-04-14T05:59:02.154Z,287
2016-04-14T05:59:20.420Z,286
2016-04-14T05:59:38.701Z,283
2016-04-14T05:59:56.985Z,287
2016-04-14T06:00:15.267Z,294
2016-04-14T06:00:33.532Z,294
2016-04-14T06:00:51.813Z,295
2016-04-14T06:01:10.065Z,291
2016-04-14T06:01:28.331Z,295
2016-04-14T06:01:46.597Z,295
2016-04-14T06:02:04.881Z,298
2016-04-14T06:02:23.006Z,297
2016-04-14T06:02:41.272Z,296
2016-04-14T06:02:59.540Z,293
2016-04-14T06:03:17.806Z,292
2016-04-14T06:03:36.103Z,293
2016-04-14T06:03:54.355Z,291
2016-04-14T06:04:12.620Z,291
2016-04-14T06:04:30.902Z,290
2016-04-14T06:04:49.167Z,288
2016-04-14T06:05:07.436Z,286
2016-04-14T06:05:25.717Z,289
2016-04-14T06:05:43.983Z,290
2016-04-14T06:06:02.266Z,289
2016-04-14T06:06:20.547Z,291
2016-04-14T06:06:38.797Z,290
2016-04-14T06:06:57.066Z,291
2016-04-14T06:07:15.347Z,292
2016-04-14T06:07:33.628Z,291
2016-04-14T06:07:51.910Z,292
2016-04-14T06:08:10.162Z,292
2016-04-14T06:08:28.443Z,292
2016-04-14T06:08:46.708Z,294
2016-04-14T06:09:04.977Z,296
2016-04-14T06:09:23.243Z,297
2016-04-14T06:09:41.524Z,297
2016-04-14T06:09:59.793Z,297
2016-04-14T06:10:18.058Z,299
2016-04-14T06:10:36.324Z,298
2016-04-14T06:10:54.623Z,300
2016-04-14T06:11:12.888Z,286
2016-04-14T06:11:31.138Z,288
2016-04-14T06:11:49.404Z,284
2016-04-14T06:12:07.688Z,287
2016-04-14T06:12:25.954Z,289
2016-04-14T06:12:44.219Z,291
2016-04-14T06:13:02.488Z,289
2016-04-14T06:13:20.754Z,292
2016-04-14T06:13:39.035Z,293
2016-04-14T06:13:57.318Z,291
2016-04-14T06:14:15.584Z,292
2016-04-14T06:14:33.865Z,292
2016-04-14T06:14:52.162Z,291
2016-04-14T06:15:10.431Z,291
2016-04-14T06:15:28.696Z,288
2016-04-14T06:15:46.977Z,289
2016-04-14T06:16:05.262Z,289
2016-04-14T06:16:23.559Z,289
2016-04-14T06:16:41.840Z,292
2016-04-14T06:17:00.108Z,287
2016-04-14T06:17:18.374Z,289
2016-04-14T06:17:36.655Z,290
2016-04-14T06:17:54.923Z,292
2016-04-14T06:18:13.189Z,288
2016-04-14T06:18:31.470Z,288
2016-04-14T06:18:49.751Z,293
2016-04-14T06:19:08.021Z,293
2016-04-14T06:19:26.286Z,294
2016-04-14T06:19:44.552Z,292
2016-04-14T06:20:02.679Z,291
2016-04-14T06:20:20.945Z,290
2016-04-14T06:20:39.210Z,287
2016-04-14T06:20:57.510Z,287
2016-04-14T06:21:15.760Z,290
2016-04-14T06:21:34.041Z,289
2016-04-14T06:21:52.307Z,288
2016-04-14T06:22:10.606Z,286
2016-04-14T06:22:28.871Z,286
2016-04-14T06:22:47.137Z,287
2016-04-14T06:23:05.421Z,287
2016-04-14T06:23:23.593Z,288
2016-04-14T06:23:41.874Z,288
2016-04-14T06:24:00.143Z,288
2016-04-14T06:24:18.440Z,284
2016-04-14T06:24:36.706Z,287
2016-04-14T06:24:55.021Z,293
2016-04-14T06:25:13.302Z,291
2016-04-14T06:25:31.584Z,287
2016-04-14T06:25:49.865Z,286
2016-04-14T06:26:08.149Z,285
2016-04-14T06:26:26.352Z,286
2016-04-14T06:26:44.524Z,288
2016-04-14T06:27:02.698Z,291
2016-04-14T06:27:20.979Z,290
2016-04-14T06:27:39.260Z,290
2016-04-14T06:27:57.529Z,290
2016-04-14T06:28:15.795Z,291
2016-04-14T06:28:34.060Z,291
2016-04-14T06:28:52.342Z,294
2016-04-14T06:29:10.626Z,296
2016-04-14T06:29:28.907Z,295
2016-04-14T06:29:47.173Z,298
2016-04-14T06:30:05.456Z,295
2016-04-14T06:30:23.722Z,290
2016-04-14T06:30:41.987Z,294
2016-04-14T06:31:00.256Z,292
2016-04-14T06:31:18.537Z,289
2016-04-14T06:31:36.803Z,283
2016-04-14T06:31:55.086Z,288
2016-04-14T06:32:13.367Z,285
2016-04-14T06:32:31.648Z,286
2016-04-14T06:32:49.914Z,287
2016-04-14T06:33:08.183Z,285
2016-04-14T06:33:26.464Z,293
2016-04-14T06:33:44.761Z,291
2016-04-14T06:34:03.028Z,290
2016-04-14T06:34:21.294Z,298
2016-04-14T06:34:39.560Z,296
2016-04-14T06:34:57.844Z,296
2016-04-14T06:35:16.110Z,296
2016-04-14T06:35:34.375Z,294
2016-04-14T06:35:52.641Z,297
2016-04-14T06:36:10.925Z,300
2016-04-14T06:36:29.191Z,295
2016-04-14T06:36:47.472Z,289
2016-04-14T06:37:05.740Z,289
2016-04-14T06:37:24.005Z,297
2016-04-14T06:37:42.286Z,302
2016-04-14T06:38:00.571Z,294
2016-04-14T06:38:18.836Z,291
2016-04-14T06:38:36.461Z,289
2016-04-14T06:38:54.746Z,289
2016-04-14T06:39:13.027Z,290
2016-04-14T06:39:31.292Z,292
2016-04-14T06:39:49.261Z,292
2016-04-14T06:40:07.545Z,295
2016-04-14T06:40:25.811Z,292
2016-04-14T06:40:44.108Z,293
2016-04-14T06:41:02.392Z,299
2016-04-14T06:41:20.533Z,299
2016-04-14T06:41:38.783Z,299
2016-04-14T06:41:57.050Z,294
2016-04-14T06:42:15.191Z,293
2016-04-14T06:42:33.300Z,295
2016-04-14T06:42:51.566Z,297
2016-04-14T06:43:09.850Z,295
2016-04-14T06:43:28.116Z,295
2016-04-14T06:43:46.382Z,291
2016-04-14T06:44:04.665Z,291
2016-04-14T06:44:22.930Z,292
2016-04-14T06:44:41.196Z,295
2016-04-14T06:44:59.465Z,289
2016-04-14T06:45:17.746Z,295
2016-04-14T06:45:36.012Z,296
2016-04-14T06:45:54.358Z,295
2016-04-14T06:46:12.265Z,304
2016-04-14T06:46:30.530Z,305
2016-04-14T06:46:48.796Z,294
2016-04-14T06:47:07.080Z,289
2016-04-14T06:47:25.346Z,290
2016-04-14T06:47:43.611Z,288
2016-04-14T06:48:01.879Z,280
2016-04-14T13:06:27.867Z,523
2016-04-14T13:06:45.976Z,403
2016-04-14T13:07:04.244Z,404
2016-04-14T13:07:22.509Z,407
2016-04-14T13:07:40.791Z,403
2016-04-14T13:07:59.059Z,401
2016-04-14T13:08:17.356Z,401
2016-04-14T13:08:35.653Z,394
2016-04-14T13:08:53.622Z,391
2016-04-14T13:09:11.736Z,392
2016-04-14T13:09:29.861Z,392
2016-04-14T13:09:47.845Z,397
2016-04-14T13:10:06.130Z,398
2016-04-14T13:10:30.552Z,396
2016-04-14T13:10:48.598Z,397
2016-04-14T13:11:06.866Z,391
2016-04-14T13:11:25.190Z,389
2016-04-14T13:11:43.487Z,392
2016-04-14T13:12:01.756Z,391
2016-04-14T13:12:20.021Z,392
2016-04-14T13:12:38.006Z,394
2016-04-14T13:12:56.273Z,393
2016-04-14T13:13:14.555Z,394
2016-04-14T13:13:32.836Z,400
2016-04-14T13:13:51.117Z,399
2016-04-14T13:14:09.386Z,391
2016-04-14T13:14:27.667Z,393
2016-04-14T13:14:45.776Z,393
2016-04-14T13:15:04.061Z,390
2016-04-14T13:15:22.326Z,398
2016-04-14T13:15:40.451Z,405
2016-04-14T13:15:58.719Z,411
2016-04-14T13:16:17.000Z,413
2016-04-14T13:16:35.266Z,417
2016-04-14T13:16:53.563Z,415
2016-04-14T13:17:11.847Z,422
2016-04-14T13:17:30.112Z,417
2016-04-14T13:17:48.378Z,418
2016-04-14T13:18:06.646Z,419
2016-04-14T13:18:24.927Z,416
2016-04-14T13:18:43.208Z,412
2016-04-14T13:19:01.477Z,403
2016-04-14T13:19:19.742Z,400
2016-04-14T13:19:38.008Z,402
2016-04-14T13:19:56.292Z,399
2016-04-14T13:20:14.558Z,396
2016-04-14T13:20:32.839Z,394
2016-04-14T13:20:51.105Z,395
2016-04-14T13:21:09.372Z,395
2016-04-14T13:21:27.654Z,391
2016-04-14T13:21:45.935Z,397
2016-04-14T13:22:04.205Z,398
2016-04-14T13:22:22.486Z,396
2016-04-14T13:22:40.736Z,401
2016-04-14T13:22:59.019Z,398
2016-04-14T13:23:17.300Z,399
2016-04-14T13:23:35.566Z,399
2016-04-14T13:23:53.847Z,402
2016-04-14T13:24:12.131Z,398
2016-04-14T13:24:30.413Z,404
2016-04-14T13:24:48.678Z,398
2016-04-14T13:25:06.963Z,401
2016-04-14T13:25:25.228Z,404
2016-04-14T13:25:43.509Z,409
2016-04-14T13:26:01.778Z,414
2016-04-14T13:26:20.044Z,413
2016-04-14T13:26:38.309Z,409
2016-04-14T13:26:56.593Z,406
2016-04-14T13:27:14.874Z,404
2016-04-14T13:27:33.171Z,402
2016-04-14T13:27:51.405Z,402
2016-04-14T13:28:09.689Z,404
2016-04-14T13:28:27.955Z,400
2016-04-14T13:28:46.221Z,405
2016-04-14T13:29:04.504Z,404
2016-04-14T13:29:22.769Z,404
2016-04-14T13:29:41.051Z,398
2016-04-14T13:29:59.319Z,399
2016-04-14T13:30:17.585Z,393
2016-04-14T13:30:35.866Z,390
2016-04-14T13:30:54.147Z,391
2016-04-14T13:31:12.415Z,384
2016-04-14T13:31:30.681Z,384
2016-04-14T13:31:48.946Z,385
2016-04-14T13:32:07.232Z,388
2016-04-14T13:32:25.513Z,391
2016-04-14T13:32:43.778Z,388
2016-04-14T13:33:02.062Z,391
2016-04-14T13:33:20.327Z,392
2016-04-14T13:33:38.609Z,384
2016-04-14T13:33:56.877Z,384
2016-04-14T13:34:15.158Z,378
2016-04-14T13:34:33.440Z,369
2016-04-14T13:34:51.690Z,374
2016-04-14T13:35:09.974Z,379
2016-04-14T13:35:28.240Z,385
2016-04-14T13:35:46.521Z,386
2016-04-14T13:36:04.788Z,381
2016-04-14T13:36:23.054Z,383
2016-04-14T13:36:41.320Z,383
2016-04-14T13:36:59.588Z,378
2016-04-14T13:37:17.870Z,378
2016-04-14T13:37:36.135Z,375
2016-04-14T13:37:54.416Z,376
2016-04-14T13:38:12.700Z,372
2016-04-14T13:38:30.825Z,374
2016-04-14T13:38:49.106Z,373
2016-04-14T13:39:07.390Z,370
2016-04-14T13:39:25.671Z,368
2016-04-14T13:39:43.921Z,371
2016-04-14T13:40:02.206Z,362
2016-04-14T13:40:20.487Z,356
2016-04-14T13:40:38.596Z,350
2016-04-14T13:40:56.865Z,356
2016-04-14T13:41:15.146Z,354
2016-04-14T13:41:33.427Z,356
2016-04-14T13:41:51.709Z,360
2016-04-14T13:42:10.009Z,371
2016-04-14T13:42:28.274Z,373
2016-04-14T13:42:46.399Z,373
2016-04-14T13:43:04.667Z,377
2016-04-14T13:43:22.932Z,380
2016-04-14T13:43:41.214Z,369
2016-04-14T13:43:59.467Z,368
2016-04-14T13:44:17.748Z,373
2016-04-14T13:44:36.014Z,376
2016-04-14T13:44:54.279Z,375
2016-04-14T13:45:12.562Z,379
2016-04-14T13:45:30.672Z,372
2016-04-14T13:45:48.953Z,361
2016-04-14T13:46:07.237Z,359
2016-04-14T13:46:25.503Z,358
2016-04-14T13:46:43.784Z,369
2016-04-14T13:47:02.036Z,376
2016-04-14T13:47:20.161Z,381
2016-04-14T13:47:38.427Z,387
2016-04-14T13:47:56.727Z,394
2016-04-14T13:48:14.992Z,399
2016-04-14T13:48:33.274Z,397
2016-04-14T13:48:51.524Z,406
2016-04-14T13:49:09.808Z,409
2016-04-14T13:49:28.089Z,409
2016-04-14T13:49:46.355Z,405
2016-04-14T13:50:04.639Z,396
2016-04-14T13:50:22.905Z,396
2016-04-14T13:50:41.170Z,394
2016-04-14T13:50:59.454Z,393
2016-04-14T13:51:17.736Z,393
2016-04-14T13:51:35.986Z,404
2016-04-14T13:51:54.267Z,233
2016-04-14T13:52:12.535Z,514
2016-04-14T13:52:30.800Z,485
2016-04-14T13:52:49.081Z,503
2016-04-14T13:53:07.334Z,504
2016-04-14T13:53:25.616Z,492
2016-04-14T13:53:43.881Z,491
2016-04-14T13:54:02.165Z,483
2016-04-14T13:54:20.430Z,490
2016-04-14T13:54:38.711Z,491
2016-04-14T13:54:56.980Z,492
2016-04-14T13:55:15.246Z,492
2016-04-14T13:55:33.527Z,483
2016-04-14T13:55:51.808Z,487
2016-04-14T13:56:10.076Z,493
2016-04-14T13:56:28.341Z,495
2016-04-14T13:56:46.623Z,496
2016-04-14T13:57:04.891Z,498
2016-04-14T13:57:23.173Z,499
2016-04-14T13:57:41.532Z,499
2016-04-14T13:57:59.394Z,500
2016-04-14T13:58:18.113Z,500
2016-04-14T13:58:35.941Z,499
2016-04-14T13:58:54.207Z,497
2016-04-14T13:59:12.490Z,495
2016-04-14T13:59:30.756Z,492
2016-04-14T13:59:49.037Z,490
2016-04-14T14:00:07.291Z,490
2016-04-14T14:00:25.572Z,489
2016-04-14T14:00:43.838Z,489
2016-04-14T14:01:02.121Z,489
2016-04-14T14:01:20.387Z,489
2016-04-14T14:01:38.652Z,488
2016-04-14T14:01:56.921Z,487
2016-04-14T14:02:15.187Z,486
2016-04-14T14:02:33.437Z,485
2016-04-14T14:02:51.718Z,485
2016-04-14T14:03:09.985Z,484
2016-04-14T14:03:28.251Z,484
2016-04-14T14:03:46.517Z,483
2016-04-14T14:04:04.785Z,485
2016-04-14T14:04:23.051Z,486
2016-04-14T14:04:41.317Z,487
2016-04-14T14:04:59.601Z,489
2016-04-14T14:05:17.882Z,490
2016-04-14T14:05:36.148Z,492
2016-04-14T14:05:54.413Z,495
2016-04-14T14:06:12.698Z,497
2016-04-14T14:06:30.963Z,498
2016-04-14T14:06:49.229Z,499
2016-04-14T14:07:07.497Z,501
2016-04-14T14:07:25.997Z,504
2016-04-14T14:07:44.044Z,503
2016-04-14T14:08:02.329Z,506
2016-04-14T14:08:20.594Z,503
2016-04-14T14:37:08.260Z,438
2016-04-14T14:37:26.541Z,415
2016-04-14T14:37:44.822Z,509
2016-04-14T14:38:03.076Z,535
2016-04-14T14:38:21.358Z,520
2016-04-14T14:38:39.623Z,475
2016-04-14T14:38:57.909Z,419
2016-04-14T14:39:16.175Z,568
2016-04-14T14:39:34.441Z,423
2016-04-14T14:39:52.722Z,521
2016-04-14T14:40:11.022Z,484
2016-04-14T14:40:29.287Z,441
2016-04-14T14:40:47.553Z,550
2016-04-14T14:41:05.854Z,479
2016-04-14T14:41:24.120Z,519
2016-04-14T14:41:42.416Z,454
2016-04-14T14:42:00.701Z,393
2016-04-14T14:42:18.998Z,507
2016-04-14T14:42:37.263Z,368
2016-04-14T14:42:55.388Z,375
2016-04-14T14:43:13.658Z,490
2016-04-14T14:43:31.939Z,367
2016-04-14T14:43:50.205Z,452
2016-04-14T14:44:08.474Z,374
2016-04-14T14:44:26.740Z,365
2016-04-14T14:44:45.037Z,377
2016-04-14T14:45:03.290Z,372
2016-04-14T14:45:21.587Z,493
2016-04-14T14:45:39.884Z,429
2016-04-14T14:45:58.136Z,404
2016-04-14T14:46:16.432Z,381
2016-04-14T14:46:34.698Z,505
2016-04-14T14:46:52.979Z,429
2016-04-14T14:47:11.248Z,487
2016-04-14T14:47:29.514Z,497
2016-04-14T14:47:47.795Z,488
2016-04-14T14:48:06.063Z,492
2016-04-14T14:48:24.329Z,375
2016-04-14T14:48:42.610Z,493
2016-04-14T14:49:00.879Z,488
2016-04-14T14:49:19.176Z,419
2016-04-14T14:49:37.426Z,358
2016-04-14T14:49:55.691Z,471
2016-04-14T14:50:13.960Z,459
2016-04-14T14:50:32.241Z,488
2016-04-14T14:50:50.507Z,496
2016-04-14T14:51:08.806Z,447
2016-04-14T14:51:27.087Z,411
2016-04-14T14:51:45.353Z,387
2016-04-14T14:52:03.638Z,454
2016-04-14T14:52:21.919Z,396
2016-04-14T14:52:40.200Z,545
2016-04-14T14:52:58.484Z,516
2016-04-14T14:53:16.765Z,553
2016-04-14T14:53:35.249Z,496
2016-04-14T14:53:53.312Z,575
2016-04-14T14:54:11.596Z,465
2016-04-14T14:54:29.862Z,541
2016-04-14T14:54:48.159Z,580
2016-04-14T14:55:06.411Z,559
2016-04-14T14:55:24.707Z,555
2016-04-14T14:55:43.004Z,545
2016-04-14T14:56:01.257Z,435
2016-04-14T14:56:19.523Z,565
2016-04-14T14:56:37.789Z,425
2016-04-14T14:56:56.085Z,437
2016-04-14T14:57:14.354Z,533
2016-04-14T14:57:32.635Z,565
2016-04-14T14:57:50.838Z,450
2016-04-14T14:58:09.029Z,507
2016-04-14T14:58:27.295Z,545
2016-04-14T14:58:45.576Z,534
2016-04-14T14:59:03.860Z,552
2016-04-14T14:59:22.141Z,515
2016-04-14T14:59:40.423Z,527
2016-04-14T14:59:58.550Z,531
2016-04-14T15:00:16.800Z,538
2016-04-14T15:00:35.081Z,521
2016-04-14T15:00:53.393Z,408
2016-04-14T15:01:11.662Z,447
2016-04-14T15:01:29.928Z,523
2016-04-14T15:01:48.209Z,413
2016-04-14T15:02:06.492Z,529
2016-04-14T15:02:24.773Z,410
2016-04-14T15:02:43.039Z,420
2016-04-14T15:03:01.323Z,389
2016-04-14T15:03:19.604Z,506
2016-04-14T15:03:37.729Z,509
2016-04-14T15:03:56.011Z,487
2016-04-14T15:04:14.263Z,456
2016-04-14T15:04:32.388Z,521
2016-04-14T15:04:50.669Z,417
2016-04-14T15:05:08.922Z,406
2016-04-14T15:05:27.188Z,534
2016-04-14T15:05:45.469Z,524
2016-04-14T15:06:03.737Z,541
2016-04-14T15:06:22.034Z,538
2016-04-14T15:06:40.284Z,452
2016-04-14T15:06:58.584Z,444
2016-04-14T15:07:16.834Z,417
2016-04-14T15:07:35.131Z,564
2016-04-14T15:07:53.397Z,458
2016-04-14T15:08:11.681Z,464
2016-04-14T15:08:29.947Z,515
2016-04-14T15:08:48.228Z,428
2016-04-14T15:09:06.496Z,549
2016-04-14T15:09:24.778Z,534
2016-04-14T15:09:43.043Z,434
2016-04-14T15:10:01.311Z,576
2016-04-14T15:10:19.577Z,471
2016-04-14T15:10:37.202Z,552
2016-04-14T15:10:55.467Z,433
2016-04-14T15:11:13.751Z,437
2016-04-14T15:11:32.001Z,553
2016-04-14T15:11:50.283Z,438
2016-04-14T15:12:08.566Z,572
2016-04-14T15:12:26.847Z,573
2016-04-14T15:12:45.128Z,431
2016-04-14T15:13:03.272Z,545
2016-04-14T15:13:21.538Z,485
2016-04-14T15:13:39.663Z,553
2016-04-14T15:13:57.930Z,528
2016-04-14T15:14:16.196Z,432
2016-04-14T15:14:34.462Z,430
2016-04-14T15:14:52.743Z,429
2016-04-14T15:15:11.027Z,439
2016-04-14T15:15:29.293Z,423
2016-04-14T15:15:47.574Z,425
2016-04-14T15:16:05.843Z,432
2016-04-14T15:16:24.124Z,567
2016-04-14T15:16:42.405Z,564
2016-04-14T15:17:00.704Z,431
2016-04-14T15:17:18.985Z,478
2016-04-14T15:17:37.251Z,447
2016-04-14T15:17:55.516Z,502
2016-04-14T15:18:13.802Z,514
2016-04-14T15:18:32.067Z,547
2016-04-14T15:18:50.349Z,550
2016-04-14T15:19:08.663Z,454
2016-04-14T15:19:26.913Z,494
2016-04-14T15:19:45.179Z,508
2016-04-14T15:20:03.463Z,545
2016-04-14T15:20:21.729Z,429
2016-04-14T15:20:39.994Z,554
2016-04-14T15:20:58.293Z,503
2016-04-14T15:21:16.574Z,439
2016-04-14T15:21:34.840Z,566
2016-04-14T15:21:53.106Z,440
2016-04-14T15:22:11.374Z,433
2016-04-14T15:22:29.640Z,465
2016-04-14T15:22:47.937Z,448
2016-04-14T15:23:06.190Z,513
2016-04-14T15:23:24.471Z,545
2016-04-14T15:23:42.737Z,568
2016-04-14T15:24:01.021Z,533
2016-04-14T15:24:19.302Z,440
2016-04-14T15:24:37.568Z,526
2016-04-14T15:24:55.833Z,439
2016-04-14T15:25:14.117Z,489
2016-04-14T15:25:32.398Z,553
2016-04-14T15:25:50.648Z,426
2016-04-14T15:26:08.963Z,545
2016-04-14T15:26:27.229Z,416
2016-04-14T15:26:45.510Z,413
2016-04-14T15:27:03.763Z,546
2016-04-14T15:27:22.060Z,405
2016-04-14T15:27:40.326Z,542
2016-04-14T15:27:58.625Z,428
2016-04-14T15:28:16.718Z,545
2016-04-14T15:28:34.984Z,501
2016-04-14T15:28:53.250Z,519
2016-04-14T15:29:11.534Z,554
2016-04-14T15:29:29.815Z,426
2016-04-14T15:29:48.112Z,453
2016-04-14T15:30:06.380Z,423
2016-04-14T15:30:24.645Z,435
2016-04-14T15:30:42.911Z,429
2016-04-14T15:31:01.195Z,524
2016-04-14T15:31:19.461Z,518
2016-04-14T15:31:37.789Z,555
2016-04-14T15:31:56.039Z,482
2016-04-14T15:32:14.339Z,482
2016-04-14T15:32:32.604Z,528
2016-04-14T15:32:50.886Z,456
2016-04-14T15:33:09.154Z,489
2016-04-14T15:33:27.435Z,415
2016-04-14T15:33:45.560Z,427
2016-04-14T15:34:03.813Z,522
2016-04-14T15:34:22.079Z,510
2016-04-14T15:34:40.376Z,409
2016-04-14T15:34:58.675Z,512
2016-04-14T15:35:16.925Z,542
2016-04-14T15:35:35.206Z,523
2016-04-14T15:35:53.503Z,422
2016-04-14T15:36:11.756Z,495
2016-04-14T15:36:30.053Z,526
2016-04-14T15:36:48.318Z,522
2016-04-14T15:37:06.586Z,527
2016-04-14T15:37:24.852Z,510
2016-04-14T15:37:43.133Z,422
2016-04-14T15:38:01.448Z,524
2016-04-14T15:38:19.698Z,519
2016-04-14T15:38:37.964Z,519
2016-04-14T15:38:56.230Z,472
2016-04-14T15:39:14.498Z,434
2016-04-14T15:39:32.764Z,488
2016-04-14T15:39:51.045Z,387
2016-04-14T15:40:09.329Z,392
2016-04-14T15:40:27.595Z,471
2016-04-14T15:40:45.876Z,510
2016-04-14T15:41:04.160Z,391
2016-04-14T15:41:22.410Z,411
2016-04-14T15:41:40.706Z,452
2016-04-14T15:41:58.991Z,457
2016-04-14T15:42:17.319Z,507
2016-04-14T15:42:35.631Z,386
2016-04-14T15:42:53.866Z,366
2016-04-14T15:43:12.165Z,503
2016-04-14T15:43:30.415Z,376
2016-04-14T15:43:48.727Z,449
2016-04-14T15:44:07.011Z,363
2016-04-14T15:44:25.277Z,492
2016-04-14T15:44:43.558Z,407
2016-04-14T15:45:01.827Z,428
2016-04-14T15:45:20.092Z,378
2016-04-14T15:45:38.374Z,495
2016-04-14T15:45:56.655Z,383
2016-04-14T15:46:14.939Z,466
2016-04-14T15:46:33.205Z,492
2016-04-14T15:46:51.517Z,366
2016-04-14T15:47:09.769Z,378
2016-04-14T15:47:28.035Z,500
2016-04-14T15:47:46.316Z,393
2016-04-14T15:48:04.585Z,386
2016-04-14T15:48:22.882Z,488
2016-04-14T15:48:41.163Z,369
2016-04-14T15:48:59.416Z,479
2016-04-14T15:49:17.713Z,484
2016-04-14T15:49:35.963Z,417
2016-04-14T15:49:54.260Z,379
2016-04-14T15:50:12.575Z,382
2016-04-14T15:50:30.825Z,501
2016-04-14T15:50:49.075Z,401
2016-04-14T15:51:07.391Z,477
2016-04-14T15:51:25.656Z,426
2016-04-14T15:51:43.953Z,492
2016-04-14T15:52:02.221Z,474
2016-04-14T15:52:20.502Z,488
2016-04-14T15:52:38.768Z,488
2016-04-14T15:52:57.065Z,406
2016-04-14T15:53:15.208Z,479
2016-04-14T15:53:33.505Z,379
2016-04-14T15:53:51.771Z,492
2016-04-14T15:54:10.070Z,359
2016-04-14T15:54:28.335Z,498
2016-04-14T15:54:46.632Z,358
2016-04-14T15:55:04.901Z,491
2016-04-14T15:55:23.182Z,376
2016-04-14T15:55:41.463Z,392
2016-04-14T15:55:59.731Z,466
2016-04-14T15:56:18.028Z,490
2016-04-14T15:56:36.293Z,489
2016-04-14T15:56:54.575Z,361
2016-04-14T15:57:12.874Z,478
2016-04-14T15:57:31.140Z,396
2016-04-14T15:57:49.406Z,462
2016-04-14T15:58:07.674Z,476
2016-04-14T15:58:25.971Z,487
2016-04-14T15:58:44.237Z,472
2016-04-14T15:59:02.521Z,404
2016-04-14T15:59:20.787Z,344
2016-04-14T15:59:39.099Z,412
2016-04-14T15:59:57.380Z,338
2016-04-14T16:00:15.665Z,427
2016-04-14T16:00:33.946Z,344
2016-04-14T16:00:52.227Z,411
2016-04-14T16:01:10.495Z,479
2016-04-14T16:01:28.776Z,446
2016-04-14T16:01:47.042Z,408
2016-04-14T16:02:05.342Z,367
2016-04-14T16:02:23.623Z,445
2016-04-14T16:02:41.888Z,395
2016-04-14T16:03:00.187Z,473
2016-04-14T16:03:18.469Z,406
2016-04-14T16:03:36.734Z,493
2016-04-14T16:03:55.000Z,363
2016-04-14T16:04:13.300Z,362
2016-04-14T16:04:31.565Z,363
2016-04-14T16:04:49.862Z,390
2016-04-14T16:05:08.131Z,357
2016-04-14T16:05:26.396Z,467
2016-04-14T16:05:44.693Z,485
2016-04-14T16:06:02.961Z,376
2016-04-14T16:06:21.242Z,394
2016-04-14T16:06:39.523Z,480
2016-04-14T16:06:57.805Z,442